Clam Gulch, AK

5:24 AM AKDT on August 28, 2014 (GMT -0800)
Soldotna | Change Station
CLOSE
Current Station
Airport
Location: Soldotna,
Elevation: 112 ft
Nearby Weather Stations

Elev 112 ft 60.48 °N, 151.03 °W | Updated 8 minutes ago

Overcast
Overcast
54 °F
Feels Like 54 °F
N
5
Wind Variable Wind from NE

Today
High -- | Low -- °F
--% Chance of Precip.
Yesterday
High -- | Low -- °F
Precip. -- in
6:51 AM 9:20 PM
Waxing Crescent, 8% visible
Pressure 29.64 in
Visibility 10.0 miles
Clouds Overcast 8000 ft
Dew Point 48 °F
Humidity 82%
Rainfall 0.00 in
Snow Depth Not available.
UV 0 out of 12
Pollen Not available.
Air Quality Not available.
Flu Activity Not available.
METAR PASX 281316Z AUTO 05004KT 10SM OVC080 12/09 A2964 RMK AO1

More Conditions Fewer Conditions

Pressure 29.64 in
Visibility 10.0 miles
Clouds Overcast 8000 ft
Dew Point 48 °F
Humidity 82%
Rainfall 0.00 in
Snow Depth Not available.
UV 0 out of 12
Pollen Not available.
Air Quality Not available.
Flu Activity Not available.
METAR PASX 281316Z AUTO 05004KT 10SM OVC080 12/09 A2964 RMK AO1

More Conditions Fewer Conditions

10-Day Weather Forecast

Almanac

Astronomy

Aug. 28, 2014 Rise Set
Actual Time 6:51 AM AKDT 9:20 PM AKDT
Civil Twilight 6:04 AM AKDT 10:06 PM AKDT
Nautical Twilight 5:02 AM AKDT 11:07 PM AKDT
Astronomical Twilight 3:35 AM AKDT 12:32 AM AKDT
Moon 10:50 AM AKDT 9:47 PM AKDT
Length of Visible Light 16h 02m
Length of Day
14h 29m
Tomorrow will be 5m 24s shorter.
Waxing Crescent, 8% of the Moon is Illuminated
Today
Waxing Crescent
Sep 2
First Quarter
Sep 8
Full
Sep 15
Last Quarter
Sep 24
New

Today's Extremes

State Highs State Lows

Community

WunderPhotos

Upload Photos

1,747,947 photos uploaded!

Nearby

Snow Depth

Station Depth Elevation
Mcneil Canyon 1 in 1320 ft
MF Bradley River 3 in 2300 ft
Cooper Lake 9 in 1200 ft
Port Graham 0 in 300 ft
Summit Creek 0 in 1400 ft

Earthquake Activity

City Distance Mag. Time & Date
No recent earthquake activity has been reported nearby.
Minimum magnitude displayed is 2.5.

Coastal Water Temperatures

Place Temperature
No Stations Reporting

Nearby Weather Stations